Time;durP1;ratioP1;P1;durP2;ratioP2;P2;SDS_P1;SDS_P2;PMS_P1;PMS_P2;Temp;Humidity;BMP_temperature;BMP_pressure;BME280_temperature;BME280_humidity;BME280_pressure;Samples;Min_cycle;Max_cycle;Signal;HPM_P1;HPM_P2
2023/03/21 00:02:02;;;;;;;3.85;2.60;;;11.90;62.90;;;;;;5060338;28;20060;-64
2023/03/21 00:04:27;;;;;;;4.32;2.67;;;11.90;62.90;;;;;;5059504;28;20053;-63
2023/03/21 00:06:53;;;;;;;3.05;2.55;;;11.90;62.90;;;;;;5063533;28;20036;-64
2023/03/21 00:09:20;;;;;;;5.68;2.83;;;11.90;63.00;;;;;;5053693;28;20026;-63
2023/03/21 00:11:46;;;;;;;9.15;2.85;;;11.90;63.00;;;;;;5051565;28;20018;-64
2023/03/21 00:14:18;;;;;;;7.82;2.80;;;11.90;63.10;;;;;;5083402;28;20094;-65
2023/03/21 00:16:49;;;;;;;5.88;3.20;;;11.90;63.10;;;;;;5058925;28;20024;-65
2023/03/21 00:19:16;;;;;;;3.85;3.15;;;11.90;63.10;;;;;;5053412;28;20084;-65
2023/03/21 00:21:42;;;;;;;3.97;2.60;;;11.90;63.10;;;;;;5063918;28;20032;-65
2023/03/21 00:24:08;;;;;;;3.53;2.50;;;11.80;62.90;;;;;;5051471;28;20033;-65
2023/03/21 00:26:34;;;;;;;3.72;2.45;;;11.80;62.90;;;;;;5054274;28;20514;-65
2023/03/21 00:29:00;;;;;;;3.40;2.47;;;11.80;62.90;;;;;;5053630;28;20017;-65
2023/03/21 00:31:26;;;;;;;2.80;2.15;;;11.80;63.00;;;;;;5078904;28;20036;-64
2023/03/21 00:33:52;;;;;;;5.05;2.33;;;11.80;63.20;;;;;;5057726;28;20055;-65
2023/03/21 00:36:17;;;;;;;7.22;2.40;;;11.80;63.20;;;;;;5054437;28;20467;-65
2023/03/21 00:38:43;;;;;;;6.45;2.35;;;11.80;63.20;;;;;;5054001;28;20140;-64
2023/03/21 00:41:13;;;;;;;5.82;2.88;;;11.80;63.40;;;;;;5064368;28;20493;-66
2023/03/21 00:43:39;;;;;;;6.05;3.17;;;11.80;63.40;;;;;;5060565;28;20021;-63
2023/03/21 00:46:05;;;;;;;8.60;3.45;;;11.80;63.30;;;;;;5056587;28;20044;-65
2023/03/21 00:48:30;;;;;;;5.18;3.83;;;11.80;63.40;;;;;;5056952;28;20025;-65
2023/03/21 00:50:59;;;;;;;4.40;3.13;;;11.80;63.40;;;;;;5053927;28;20036;-64
2023/03/21 00:53:25;;;;;;;6.07;3.15;;;11.80;63.40;;;;;;5061227;28;20021;-64
2023/03/21 00:55:51;;;;;;;4.13;2.92;;;11.70;63.40;;;;;;5064142;28;20032;-64
2023/03/21 00:58:17;;;;;;;4.88;3.33;;;11.70;63.50;;;;;;5053288;28;20122;-63
2023/03/21 01:00:43;;;;;;;5.95;3.35;;;11.70;63.60;;;;;;5062102;28;20035;-64
2023/03/21 01:03:12;;;;;;;5.90;3.05;;;11.70;63.70;;;;;;5069112;28;20028;-64
2023/03/21 01:08:25;;;;;;;5.38;2.60;;;11.70;63.80;;;;;;5057332;28;20047;-65
2023/03/21 01:10:51;;;;;;;5.32;2.88;;;11.70;63.70;;;;;;5057050;28;20024;-65
2023/03/21 01:13:18;;;;;;;5.40;3.00;;;11.70;63.80;;;;;;5057071;28;20048;-65
2023/03/21 01:15:50;;;;;;;3.58;2.65;;;11.60;63.80;;;;;;5060395;28;20032;-65
2023/03/21 01:18:17;;;;;;;5.22;2.63;;;11.60;63.80;;;;;;5056818;28;20029;-65
2023/03/21 01:20:44;;;;;;;4.65;2.83;;;11.60;63.90;;;;;;5067412;28;20036;-65
2023/03/21 01:23:11;;;;;;;8.95;2.72;;;11.60;63.90;;;;;;5060033;28;20516;-65
2023/03/21 01:25:37;;;;;;;3.65;2.65;;;11.60;64.00;;;;;;5054091;28;20033;-65
2023/03/21 01:28:03;;;;;;;7.25;2.70;;;11.50;64.00;;;;;;5064493;28;20028;-65
2023/03/21 01:30:29;;;;;;;3.95;2.72;;;11.50;64.00;;;;;;5057095;28;20123;-65
2023/03/21 01:32:54;;;;;;;4.13;2.80;;;11.50;64.00;;;;;;5060730;28;20393;-65
2023/03/21 01:35:20;;;;;;;4.35;2.60;;;11.50;63.90;;;;;;5060847;28;20045;-63
2023/03/21 01:37:47;;;;;;;4.35;2.92;;;11.40;63.70;;;;;;5057642;28;20040;-65
2023/03/21 01:40:20;;;;;;;6.00;4.13;;;11.40;63.70;;;;;;5066130;28;20020;-65
2023/03/21 01:42:46;;;;;;;4.93;3.50;;;11.40;63.70;;;;;;5051779;28;20040;-65
2023/03/21 01:45:50;;;;;;;7.22;3.03;;;11.40;63.40;;;;;;5056312;28;20035;-64
2023/03/21 01:48:17;;;;;;;4.75;3.80;;;11.40;63.60;;;;;;5046946;28;20097;-65
2023/03/21 01:50:43;;;;;;;5.00;3.97;;;11.30;63.00;;;;;;5059099;28;20112;-64
2023/03/21 01:53:09;;;;;;;3.58;3.17;;;11.30;63.10;;;;;;5060707;28;20523;-65
2023/03/21 01:55:36;;;;;;;4.70;2.97;;;11.30;63.10;;;;;;5061127;28;20062;-64
2023/03/21 01:58:04;;;;;;;5.90;3.20;;;11.20;63.40;;;;;;5063294;28;20024;-64
2023/03/21 02:00:31;;;;;;;4.35;2.63;;;11.20;63.80;;;;;;5052446;28;20028;-65
2023/03/21 02:03:00;;;;;;;4.15;2.90;;;11.20;64.10;;;;;;5053738;28;20072;-63
2023/03/21 02:05:36;;;;;;;5.10;2.80;;;11.20;64.30;;;;;;5059071;28;20031;-64
2023/03/21 02:08:02;;;;;;;5.82;3.10;;;11.20;64.50;;;;;;5066620;28;20029;-64
2023/03/21 02:10:30;;;;;;;5.85;2.80;;;11.20;64.30;;;;;;5052706;28;20048;-64
2023/03/21 02:13:08;;;;;;;3.10;2.78;;;11.20;64.60;;;;;;5063735;28;20092;-64
2023/03/21 02:15:39;;;;;;;7.13;2.53;;;11.20;64.90;;;;;;5062819;28;20036;-65
2023/03/21 02:18:16;;;;;;;2.88;2.47;;;11.20;64.90;;;;;;5056830;28;20029;-65
2023/03/21 02:21:00;;;;;;;3.90;2.47;;;11.20;64.90;;;;;;5054427;28;20095;-64
2023/03/21 02:23:40;;;;;;;4.60;2.67;;;11.20;65.30;;;;;;5046992;28;20399;-65
2023/03/21 02:26:25;;;;;;;2.88;2.40;;;11.20;65.10;;;;;;5057381;28;20064;-64
2023/03/21 02:29:01;;;;;;;4.35;2.80;;;11.20;65.60;;;;;;5061208;28;20021;-64
2023/03/21 02:31:31;;;;;;;4.63;2.55;;;11.20;65.00;;;;;;5062762;28;20025;-63
2023/03/21 02:34:01;;;;;;;3.88;2.50;;;11.20;65.10;;;;;;5053960;28;20038;-63
2023/03/21 02:36:51;;;;;;;3.83;2.25;;;11.10;65.00;;;;;;5056785;28;20021;-64
2023/03/21 02:39:41;;;;;;;3.00;2.15;;;11.10;65.40;;;;;;5051562;28;20029;-63
2023/03/21 02:42:22;;;;;;;4.85;2.53;;;11.20;65.50;;;;;;5057522;28;20119;-65
2023/03/21 02:44:57;;;;;;;2.50;2.30;;;11.20;64.90;;;;;;5055259;28;20055;-65
2023/03/21 02:47:46;;;;;;;4.32;2.70;;;11.10;65.30;;;;;;5055814;28;20037;-64
2023/03/21 02:50:12;;;;;;;4.80;2.60;;;11.10;65.60;;;;;;5066701;28;20023;-65
2023/03/21 02:52:39;;;;;;;6.97;2.53;;;11.10;64.90;;;;;;5056505;28;20057;-63
2023/03/21 02:55:21;;;;;;;3.58;2.40;;;11.10;65.10;;;;;;5055279;28;20025;-66
2023/03/21 02:57:49;;;;;;;12.98;2.40;;;11.10;65.20;;;;;;5060280;28;20083;-64
2023/03/21 03:00:19;;;;;;;4.28;2.60;;;11.10;65.20;;;;;;5063946;28;20029;-63
2023/03/21 03:02:45;;;;;;;6.10;2.63;;;11.10;65.30;;;;;;5062851;28;20031;-63
2023/03/21 03:05:21;;;;;;;5.40;2.22;;;11.10;65.20;;;;;;5061459;28;20027;-64
2023/03/21 03:08:02;;;;;;;3.63;2.38;;;11.10;65.60;;;;;;5063602;28;20041;-64
2023/03/21 03:10:56;;;;;;;3.80;2.42;;;11.10;65.70;;;;;;5052656;28;20017;-65
2023/03/21 03:13:40;;;;;;;6.35;2.80;;;11.00;65.70;;;;;;5068093;28;20058;-64
2023/03/21 03:16:50;;;;;;;3.50;2.40;;;11.10;66.50;;;;;;5055345;28;20017;-64
2023/03/21 03:19:26;;;;;;;4.00;2.60;;;11.10;66.10;;;;;;5059833;28;20288;-63
2023/03/21 03:22:05;;;;;;;3.45;2.33;;;11.00;65.70;;;;;;5064236;28;20053;-64
2023/03/21 03:24:37;;;;;;;4.38;2.65;;;11.00;65.80;;;;;;5062818;28;20096;-65
2023/03/21 03:27:31;;;;;;;4.10;2.17;;;11.00;65.60;;;;;;5053537;28;20030;-65
2023/03/21 03:29:59;;;;;;;4.57;2.60;;;11.10;65.80;;;;;;5058631;28;20017;-65
2023/03/21 03:32:51;;;;;;;5.75;2.25;;;11.00;65.40;;;;;;5053363;28;20017;-65
2023/03/21 03:35:20;;;;;;;4.45;2.40;;;11.00;66.20;;;;;;5059504;28;20116;-64
2023/03/21 03:37:51;;;;;;;3.92;2.42;;;11.00;65.50;;;;;;5056686;28;20082;-64
2023/03/21 03:40:26;;;;;;;3.75;2.20;;;11.00;65.50;;;;;;5061799;28;20025;-64
2023/03/21 03:42:55;;;;;;;3.00;2.47;;;11.00;65.70;;;;;;5060997;28;20070;-64
2023/03/21 03:45:35;;;;;;;4.72;2.28;;;11.00;65.60;;;;;;5064983;28;20052;-64
2023/03/21 03:48:12;;;;;;;3.97;2.28;;;11.00;65.70;;;;;;5054785;28;20550;-63
2023/03/21 03:50:48;;;;;;;3.45;2.28;;;11.00;66.00;;;;;;5054540;28;20281;-64
2023/03/21 03:53:29;;;;;;;3.55;2.35;;;11.00;65.80;;;;;;5060060;28;20025;-65
2023/03/21 03:55:56;;;;;;;5.88;2.38;;;11.00;66.90;;;;;;5065413;28;20025;-64
2023/03/21 03:58:23;;;;;;;3.38;2.58;;;10.90;65.60;;;;;;5067821;28;20426;-64
2023/03/21 04:00:50;;;;;;;3.17;2.13;;;10.90;65.70;;;;;;5052519;28;20032;-65
2023/03/21 04:03:16;;;;;;;4.07;2.35;;;11.00;65.80;;;;;;5064487;28;20021;-63
2023/03/21 04:05:45;;;;;;;5.05;2.38;;;11.00;65.80;;;;;;5055415;28;20029;-65
2023/03/21 04:08:12;;;;;;;3.35;2.58;;;10.90;65.80;;;;;;5053354;28;20581;-65
2023/03/21 04:10:38;;;;;;;5.82;2.28;;;10.90;65.80;;;;;;5054608;28;20079;-63
2023/03/21 04:13:04;;;;;;;3.50;2.33;;;10.90;65.80;;;;;;5054811;28;20096;-65
2023/03/21 04:15:29;;;;;;;4.25;2.38;;;10.90;65.90;;;;;;5066137;28;20036;-64
2023/03/21 04:17:56;;;;;;;3.72;2.30;;;10.90;66.00;;;;;;5056965;28;20049;-64
2023/03/21 04:20:21;;;;;;;4.15;2.30;;;10.90;66.00;;;;;;5060241;28;20037;-64
2023/03/21 04:22:47;;;;;;;4.93;2.83;;;10.90;66.10;;;;;;5061381;28;20094;-64
2023/03/21 04:25:13;;;;;;;5.22;2.47;;;10.90;66.10;;;;;;5059372;28;20780;-64
2023/03/21 04:27:39;;;;;;;4.85;2.40;;;10.90;66.10;;;;;;5057265;28;20070;-64
2023/03/21 04:30:06;;;;;;;3.17;2.50;;;10.90;66.10;;;;;;5062893;28;20092;-64
2023/03/21 04:32:32;;;;;;;3.30;2.38;;;10.90;66.10;;;;;;5067217;28;20013;-64
2023/03/21 04:34:59;;;;;;;4.68;2.40;;;10.80;66.00;;;;;;5061462;28;20126;-64
2023/03/21 04:37:26;;;;;;;4.00;2.55;;;10.90;66.10;;;;;;5051518;28;20018;-64
2023/03/21 04:39:52;;;;;;;3.30;2.53;;;10.80;66.10;;;;;;5056943;28;20036;-64
2023/03/21 04:42:19;;;;;;;4.72;2.65;;;10.80;66.20;;;;;;5057972;28;20097;-64
2023/03/21 04:44:48;;;;;;;3.75;2.55;;;10.80;66.30;;;;;;5059860;28;20026;-64
2023/03/21 04:47:19;;;;;;;3.72;2.35;;;10.80;66.50;;;;;;5047736;28;20068;-63
2023/03/21 04:49:48;;;;;;;5.45;2.55;;;10.80;66.30;;;;;;5058665;28;20058;-64
2023/03/21 04:52:14;;;;;;;3.33;2.53;;;10.80;66.40;;;;;;5057369;28;20025;-64
2023/03/21 04:54:40;;;;;;;3.13;2.40;;;10.80;66.30;;;;;;5064383;28;20111;-64
2023/03/21 04:57:06;;;;;;;6.07;2.53;;;10.80;66.40;;;;;;5055089;28;20404;-65
2023/03/21 04:59:32;;;;;;;4.88;2.83;;;10.80;66.50;;;;;;5048892;28;20021;-65
2023/03/21 05:01:58;;;;;;;5.10;2.55;;;10.80;66.50;;;;;;5060595;28;20025;-65
2023/03/21 05:04:25;;;;;;;4.00;2.45;;;10.80;66.50;;;;;;5049713;28;20031;-65
2023/03/21 05:06:51;;;;;;;5.13;2.72;;;10.80;66.60;;;;;;5055600;28;20492;-65
2023/03/21 05:09:17;;;;;;;9.32;2.42;;;10.80;66.50;;;;;;5058968;28;20040;-64
2023/03/21 05:11:43;;;;;;;3.80;2.35;;;10.80;66.50;;;;;;5061879;28;20769;-65
2023/03/21 05:14:12;;;;;;;3.60;2.65;;;10.80;66.60;;;;;;5050572;28;20025;-65
2023/03/21 05:16:43;;;;;;;3.63;2.58;;;10.80;66.60;;;;;;5064203;28;20017;-65
2023/03/21 05:19:12;;;;;;;10.80;2.50;;;10.80;66.70;;;;;;5060902;28;20033;-65
2023/03/21 05:21:41;;;;;;;9.82;4.28;;;10.80;66.70;;;;;;5059536;28;20120;-65
2023/03/21 05:24:11;;;;;;;7.55;4.35;;;10.70;66.60;;;;;;5058903;28;20029;-63
2023/03/21 05:26:38;;;;;;;6.50;4.00;;;10.80;66.70;;;;;;5055279;28;20555;-63
2023/03/21 05:29:04;;;;;;;5.63;3.67;;;10.80;66.70;;;;;;5057302;28;20084;-64
2023/03/21 05:31:29;;;;;;;8.95;4.45;;;10.80;66.70;;;;;;5057384;28;20079;-64
2023/03/21 05:33:55;;;;;;;10.55;6.03;;;10.70;66.80;;;;;;5058476;28;20040;-64
2023/03/21 05:36:21;;;;;;;12.88;5.90;;;10.70;66.90;;;;;;5059324;28;20024;-64
2023/03/21 05:38:52;;;;;;;6.85;4.10;;;10.70;66.90;;;;;;5055069;28;20026;-62
2023/03/21 05:41:18;;;;;;;7.00;3.80;;;11.00;67.10;;;;;;5056896;28;20047;-64
2023/03/21 05:43:44;;;;;;;4.68;2.90;;;10.70;66.90;;;;;;5057163;28;20025;-64
2023/03/21 05:46:10;;;;;;;3.58;2.88;;;10.70;66.90;;;;;;5065202;28;20117;-66
2023/03/21 05:48:36;;;;;;;3.65;2.47;;;10.80;67.10;;;;;;5061682;28;20084;-64
2023/03/21 05:51:03;;;;;;;4.80;2.63;;;10.80;67.00;;;;;;5061821;28;20037;-64
2023/03/21 05:53:29;;;;;;;5.93;2.50;;;10.70;67.00;;;;;;5050157;28;20033;-63
2023/03/21 05:55:55;;;;;;;4.60;2.45;;;10.70;67.00;;;;;;5054628;28;20026;-64
2023/03/21 05:58:20;;;;;;;3.17;2.20;;;10.70;66.90;;;;;;5057558;28;20081;-64
2023/03/21 06:00:46;;;;;;;4.78;2.60;;;10.70;66.90;;;;;;5063109;28;20112;-65
2023/03/21 06:03:12;;;;;;;8.38;2.78;;;10.80;67.10;;;;;;5061300;28;20020;-64
2023/03/21 06:05:37;;;;;;;5.05;2.40;;;10.80;67.10;;;;;;5052551;28;20036;-64
2023/03/21 06:08:03;;;;;;;7.20;3.35;;;10.80;67.10;;;;;;5059906;28;20036;-64
2023/03/21 06:10:29;;;;;;;6.78;3.00;;;10.80;67.10;;;;;;5060455;28;20020;-64
2023/03/21 06:12:54;;;;;;;8.48;2.40;;;10.80;67.30;;;;;;5057013;28;20405;-64
2023/03/21 06:15:20;;;;;;;4.47;2.80;;;10.80;67.30;;;;;;5066599;28;20021;-65
2023/03/21 06:17:46;;;;;;;4.28;2.65;;;10.80;67.20;;;;;;5063774;28;20032;-65
2023/03/21 06:20:12;;;;;;;3.47;2.90;;;10.90;67.20;;;;;;5056096;28;20032;-65
2023/03/21 06:22:38;;;;;;;7.50;3.70;;;10.90;67.30;;;;;;5060667;28;20430;-66
2023/03/21 06:25:06;;;;;;;7.47;4.22;;;10.90;67.30;;;;;;5053520;28;20037;-65
2023/03/21 06:27:32;;;;;;;9.90;4.50;;;10.90;67.40;;;;;;5063149;28;20089;-66
2023/03/21 06:29:58;;;;;;;5.75;3.65;;;10.90;67.30;;;;;;5062763;28;20327;-65
2023/03/21 06:32:25;;;;;;;7.40;3.85;;;10.90;67.20;;;;;;5063404;28;20044;-63
2023/03/21 06:34:50;;;;;;;9.10;4.25;;;11.00;67.20;;;;;;5058975;28;20498;-64
2023/03/21 06:37:16;;;;;;;6.80;4.43;;;11.00;67.20;;;;;;5067103;28;20025;-66
2023/03/21 06:39:43;;;;;;;6.65;4.13;;;11.00;67.30;;;;;;5070672;28;20060;-64
2023/03/21 06:42:10;;;;;;;8.80;3.75;;;11.10;67.30;;;;;;5058476;28;20037;-64
2023/03/21 06:44:35;;;;;;;10.93;3.42;;;11.10;67.20;;;;;;5067955;28;20032;-64
2023/03/21 06:47:01;;;;;;;6.43;3.83;;;11.10;67.20;;;;;;5066684;28;20040;-63
2023/03/21 06:49:27;;;;;;;9.52;3.83;;;11.20;67.30;;;;;;5069910;28;20055;-64
2023/03/21 06:51:52;;;;;;;6.47;3.75;;;11.20;67.20;;;;;;5055330;28;20036;-65
2023/03/21 06:54:19;;;;;;;6.22;4.00;;;11.20;67.10;;;;;;5057683;28;20021;-65
2023/03/21 06:56:45;;;;;;;4.60;3.28;;;11.30;67.10;;;;;;5058416;28;20028;-64
2023/03/21 06:59:11;;;;;;;7.65;3.92;;;11.30;67.00;;;;;;5057034;28;20051;-65
2023/03/21 07:01:37;;;;;;;5.43;3.50;;;11.30;67.70;;;;;;5061969;28;20021;-64
2023/03/21 07:04:03;;;;;;;6.47;4.07;;;11.40;67.00;;;;;;5053829;28;20044;-62
2023/03/21 07:06:29;;;;;;;10.10;3.28;;;11.40;66.80;;;;;;5064517;28;20070;-64
2023/03/21 07:08:55;;;;;;;6.90;3.00;;;11.50;66.80;;;;;;5065139;28;20387;-63
2023/03/21 07:11:22;;;;;;;7.93;3.00;;;11.50;66.70;;;;;;5066980;28;20044;-64
2023/03/21 07:13:48;;;;;;;5.05;2.88;;;11.60;66.80;;;;;;5060985;28;20048;-64
2023/03/21 07:16:15;;;;;;;5.32;3.05;;;11.60;66.60;;;;;;5069745;28;20033;-63
2023/03/21 07:18:41;;;;;;;6.45;3.20;;;11.70;66.60;;;;;;5061685;28;20044;-64
2023/03/21 07:21:07;;;;;;;3.63;2.80;;;11.80;66.40;;;;;;5061181;28;20028;-63
2023/03/21 07:23:33;;;;;;;5.20;3.00;;;11.80;66.20;;;;;;5067454;28;20047;-63
2023/03/21 07:26:00;;;;;;;4.15;2.58;;;11.90;66.00;;;;;;5063690;28;20033;-63
2023/03/21 07:28:26;;;;;;;3.17;2.63;;;12.00;65.90;;;;;;5071319;28;20502;-63
2023/03/21 07:30:55;;;;;;;5.53;2.83;;;12.00;65.70;;;;;;5061663;28;20440;-63
2023/03/21 07:33:22;;;;;;;6.22;3.10;;;12.10;65.60;;;;;;5063250;28;20064;-64
2023/03/21 07:35:49;;;;;;;5.28;3.03;;;12.20;65.60;;;;;;5068455;28;20395;-63
2023/03/21 07:38:15;;;;;;;6.63;3.53;;;12.30;65.50;;;;;;5064311;28;20017;-63
2023/03/21 07:40:42;;;;;;;9.23;3.40;;;12.30;65.20;;;;;;5059505;28;20055;-65
2023/03/21 07:43:07;;;;;;;5.68;2.80;;;12.40;65.10;;;;;;5054153;28;20061;-64
2023/03/21 07:45:33;;;;;;;4.45;3.30;;;12.40;65.00;;;;;;5069086;28;20029;-63
2023/03/21 07:48:00;;;;;;;7.40;3.92;;;12.50;64.90;;;;;;5066340;28;20029;-64
2023/03/21 07:50:25;;;;;;;10.85;4.18;;;12.60;64.90;;;;;;5067929;28;20032;-64
2023/03/21 07:52:51;;;;;;;5.88;4.18;;;12.70;64.80;;;;;;5070605;28;20033;-64
2023/03/21 07:55:17;;;;;;;7.57;3.78;;;12.70;64.70;;;;;;5063362;28;20033;-64
2023/03/21 07:57:43;;;;;;;7.13;3.88;;;12.80;64.60;;;;;;5062644;28;20017;-64
2023/03/21 08:00:10;;;;;;;7.10;4.43;;;12.90;64.50;;;;;;5066327;28;20094;-64
2023/03/21 08:02:36;;;;;;;11.00;5.07;;;12.90;64.30;;;;;;5065140;28;20059;-64
2023/03/21 08:05:02;;;;;;;8.73;4.55;;;13.00;64.00;;;;;;5071040;28;20020;-64
2023/03/21 08:07:29;;;;;;;6.43;3.50;;;13.10;64.00;;;;;;5049649;28;20061;-64
2023/03/21 08:09:55;;;;;;;5.93;3.63;;;13.20;64.00;;;;;;5064549;28;20033;-63
2023/03/21 08:12:21;;;;;;;6.78;3.72;;;13.30;63.90;;;;;;5058863;28;20031;-64
2023/03/21 08:14:46;;;;;;;8.23;3.63;;;13.40;63.70;;;;;;5064632;28;20036;-64
2023/03/21 08:17:12;;;;;;;5.40;3.53;;;13.50;63.50;;;;;;5058052;28;20025;-64
2023/03/21 08:19:38;;;;;;;11.63;4.05;;;13.50;63.50;;;;;;5053678;28;20032;-63
2023/03/21 08:22:05;;;;;;;4.93;2.90;;;13.60;63.40;;;;;;5059143;28;20411;-64
2023/03/21 08:24:32;;;;;;;5.38;3.38;;;13.70;63.40;;;;;;5052280;28;20755;-63
2023/03/21 08:26:59;;;;;;;6.32;3.38;;;13.80;63.40;;;;;;5061876;28;20036;-64
2023/03/21 08:29:25;;;;;;;5.53;2.80;;;13.90;63.10;;;;;;5067229;28;20104;-63
2023/03/21 08:31:53;;;;;;;6.32;3.58;;;14.00;63.00;;;;;;5066177;28;20032;-64
2023/03/21 08:34:18;;;;;;;6.63;2.78;;;14.00;62.60;;;;;;5062258;28;20033;-64
2023/03/21 08:36:45;;;;;;;3.58;2.67;;;14.10;62.40;;;;;;5060453;28;20048;-64
2023/03/21 08:39:11;;;;;;;4.38;2.78;;;14.20;62.30;;;;;;5061345;28;20017;-63
2023/03/21 08:41:37;;;;;;;3.38;2.65;;;14.30;62.30;;;;;;5060932;28;20039;-63
2023/03/21 08:44:05;;;;;;;4.20;2.78;;;14.40;62.20;;;;;;5058834;28;20091;-64
2023/03/21 08:46:31;;;;;;;6.13;2.92;;;14.50;61.80;;;;;;5069121;28;20056;-63
2023/03/21 08:48:57;;;;;;;3.97;3.03;;;14.50;61.80;;;;;;5064590;28;20032;-63
2023/03/21 08:51:22;;;;;;;4.05;2.50;;;14.60;61.70;;;;;;5061736;28;20070;-63
2023/03/21 08:53:51;;;;;;;5.80;2.65;;;14.70;61.20;;;;;;5056158;28;20039;-65
2023/03/21 08:56:17;;;;;;;3.03;2.30;;;14.70;60.80;;;;;;5060984;28;20021;-64
2023/03/21 08:58:44;;;;;;;3.55;2.15;;;14.80;60.50;;;;;;5054739;28;20029;-64
2023/03/21 09:01:10;;;;;;;2.75;2.25;;;14.90;60.20;;;;;;5053843;28;20060;-64
2023/03/21 09:03:38;;;;;;;7.20;2.05;;;14.90;59.90;;;;;;5053304;28;20071;-64
2023/03/21 09:06:04;;;;;;;3.80;2.05;;;15.00;59.80;;;;;;5059103;28;20159;-63
2023/03/21 09:08:30;;;;;;;3.15;2.40;;;15.00;59.70;;;;;;5058979;28;20079;-63
2023/03/21 09:10:56;;;;;;;4.90;2.45;;;15.10;59.40;;;;;;5064253;28;20530;-64
2023/03/21 09:13:23;;;;;;;2.88;2.20;;;15.20;59.10;;;;;;5060616;28;20025;-64
2023/03/21 09:15:49;;;;;;;2.90;2.35;;;15.30;58.80;;;;;;5061846;28;20025;-63
2023/03/21 09:18:16;;;;;;;2.50;2.30;;;15.40;58.70;;;;;;5060553;28;20026;-63
2023/03/21 09:20:43;;;;;;;4.75;2.40;;;15.50;58.70;;;;;;5058218;28;20087;-64
2023/03/21 09:23:10;;;;;;;3.80;2.00;;;15.50;58.60;;;;;;5055586;28;20029;-64
2023/03/21 09:25:37;;;;;;;5.13;2.20;;;15.60;58.40;;;;;;5057214;28;20414;-65
2023/03/21 09:28:04;;;;;;;2.92;2.05;;;15.60;57.90;;;;;;5062489;28;20091;-64
2023/03/21 09:30:32;;;;;;;2.78;2.13;;;15.70;57.40;;;;;;5062887;28;20021;-64
2023/03/21 09:32:59;;;;;;;3.95;2.10;;;15.80;57.10;;;;;;5060606;28;20078;-64
2023/03/21 09:35:25;;;;;;;3.63;2.35;;;15.80;56.70;;;;;;5059448;28;20140;-65
2023/03/21 09:37:52;;;;;;;5.18;2.88;;;15.90;56.70;;;;;;5051347;28;20028;-65
2023/03/21 09:40:40;;;;;;;3.38;2.33;;;16.00;56.50;;;;;;5056393;28;20670;-63
2023/03/21 09:43:21;;;;;;;4.13;2.55;;;16.00;55.80;;;;;;5054577;28;20125;-63
2023/03/21 09:46:02;;;;;;;9.00;4.57;;;16.00;55.50;;;;;;5062372;28;20052;-66
2023/03/21 09:48:55;;;;;;;7.30;3.63;;;16.00;55.80;;;;;;5061303;28;20020;-64
2023/03/21 09:51:23;;;;;;;16.00;5.57;;;16.10;55.70;;;;;;5058002;28;20071;-66
2023/03/21 09:53:51;;;;;;;6.90;3.97;;;16.20;55.80;;;;;;5065213;28;20028;-63
2023/03/21 09:56:17;;;;;;;5.53;2.30;;;16.20;55.60;;;;;;5065409;28;20021;-65
2023/03/21 09:58:51;;;;;;;2.90;2.05;;;16.30;55.60;;;;;;5062076;28;20029;-64
2023/03/21 10:01:31;;;;;;;3.70;2.33;;;16.30;55.10;;;;;;5062691;28;20021;-65
2023/03/21 10:04:02;;;;;;;3.63;2.50;;;16.30;54.50;;;;;;5059491;28;20025;-63
2023/03/21 10:06:29;;;;;;;3.75;2.63;;;16.40;55.00;;;;;;5073028;28;20032;-63
2023/03/21 10:09:23;;;;;;;5.32;2.40;;;16.40;54.90;;;;;;5065262;28;20025;-64
2023/03/21 10:11:54;;;;;;;3.03;2.27;;;16.50;54.60;;;;;;5061057;28;20029;-63
2023/03/21 10:14:34;;;;;;;3.50;2.83;;;16.60;54.80;;;;;;5053301;28;20112;-64
2023/03/21 10:17:24;;;;;;;3.13;2.38;;;16.60;53.40;;;;;;5064812;28;20440;-64
2023/03/21 10:20:15;;;;;;;4.32;2.85;;;16.70;54.10;;;;;;5060606;28;20052;-64
2023/03/21 10:22:43;;;;;;;4.75;3.03;;;16.80;54.20;;;;;;5048668;28;20036;-63
2023/03/21 10:25:15;;;;;;;4.25;2.70;;;16.90;54.50;;;;;;5050931;28;20021;-64
2023/03/21 10:27:40;;;;;;;5.03;2.92;;;17.00;54.50;;;;;;5053595;28;20096;-64
2023/03/21 10:30:11;;;;;;;5.05;3.45;;;17.20;54.40;;;;;;5053196;28;20047;-64
2023/03/21 10:32:37;;;;;;;4.80;3.45;;;17.30;54.40;;;;;;5057658;28;20016;-63
2023/03/21 10:35:03;;;;;;;5.50;3.33;;;17.50;54.00;;;;;;5064798;28;20053;-64
2023/03/21 10:37:31;;;;;;;4.00;3.17;;;17.60;54.00;;;;;;5063886;28;20021;-64
2023/03/21 10:39:56;;;;;;;5.80;3.83;;;17.70;53.60;;;;;;5066011;28;20041;-63
2023/03/21 10:42:29;;;;;;;4.88;3.53;;;17.80;53.30;;;;;;5065701;28;20035;-63
2023/03/21 10:44:56;;;;;;;5.68;4.00;;;17.90;53.20;;;;;;5065375;28;20472;-64
2023/03/21 10:47:26;;;;;;;5.07;3.33;;;18.00;53.00;;;;;;5055780;28;20033;-64
2023/03/21 10:49:53;;;;;;;6.95;3.42;;;18.10;53.30;;;;;;5057788;28;20044;-63
2023/03/21 10:52:22;;;;;;;6.20;3.17;;;18.20;53.40;;;;;;5058947;28;20029;-64
2023/03/21 10:54:48;;;;;;;4.93;3.28;;;18.30;52.50;;;;;;5056564;28;20035;-64
2023/03/21 10:57:25;;;;;;;4.22;3.40;;;18.40;52.80;;;;;;5054352;28;20037;-65
2023/03/21 10:59:59;;;;;;;3.63;2.92;;;18.50;52.30;;;;;;5047206;28;20026;-63
2023/03/21 11:02:34;;;;;;;5.57;3.40;;;18.60;51.80;;;;;;5049409;28;20029;-65
2023/03/21 11:05:06;;;;;;;4.78;3.45;;;18.70;51.10;;;;;;5064674;28;20013;-65
2023/03/21 11:07:32;;;;;;;7.22;3.50;;;18.80;51.40;;;;;;5060714;28;20096;-64
2023/03/21 11:10:00;;;;;;;4.90;2.88;;;18.80;51.40;;;;;;5066698;28;20040;-64
2023/03/21 11:12:38;;;;;;;3.08;2.45;;;18.90;51.30;;;;;;5065295;28;20051;-64
2023/03/21 11:15:29;;;;;;;3.40;2.65;;;19.00;50.40;;;;;;5064213;28;20180;-64
2023/03/21 11:17:56;;;;;;;4.38;2.80;;;19.00;49.70;;;;;;5044665;28;20041;-64
2023/03/21 11:20:22;;;;;;;6.75;2.60;;;19.20;51.20;;;;;;5059214;28;20088;-62
2023/03/21 11:22:48;;;;;;;4.78;2.65;;;19.20;50.70;;;;;;5062507;28;20063;-64
2023/03/21 11:25:36;;;;;;;3.53;2.90;;;19.30;50.70;;;;;;5054962;28;20031;-63
2023/03/21 11:28:11;;;;;;;4.05;2.65;;;19.30;49.80;;;;;;5059470;28;20051;-64
2023/03/21 11:30:36;;;;;;;3.83;2.72;;;19.40;50.20;;;;;;5061142;28;20059;-64
2023/03/21 11:33:05;;;;;;;4.57;2.58;;;19.40;50.40;;;;;;5057642;28;20029;-65
2023/03/21 11:35:35;;;;;;;3.85;2.88;;;19.40;50.60;;;;;;5059238;28;20028;-65
2023/03/21 11:38:01;;;;;;;6.97;2.90;;;19.50;50.20;;;;;;5057399;28;20045;-65
2023/03/21 11:40:29;;;;;;;5.13;3.08;;;19.60;49.50;;;;;;5058481;28;20037;-65
2023/03/21 11:42:57;;;;;;;3.67;3.03;;;19.60;49.50;;;;;;5059791;28;20037;-65
2023/03/21 11:45:26;;;;;;;5.38;2.72;;;19.60;49.50;;;;;;5055526;28;20048;-65
2023/03/21 11:47:54;;;;;;;4.85;2.47;;;19.60;49.50;;;;;;5059977;28;20043;-64
2023/03/21 11:50:20;;;;;;;5.35;2.92;;;19.60;49.20;;;;;;5052656;28;20110;-64
2023/03/21 11:53:07;;;;;;;4.40;2.85;;;19.60;49.40;;;;;;5057279;28;20515;-64
2023/03/21 11:55:36;;;;;;;5.05;2.88;;;19.60;49.30;;;;;;5054592;28;20017;-64
2023/03/21 11:58:21;;;;;;;6.47;2.47;;;19.70;49.80;;;;;;5061746;28;20043;-64
2023/03/21 12:00:56;;;;;;;3.17;2.63;;;19.70;49.50;;;;;;5049963;28;20056;-64
2023/03/21 12:03:44;;;;;;;3.33;2.78;;;19.80;49.30;;;;;;5051333;28;20094;-63
2023/03/21 12:06:28;;;;;;;2.72;2.47;;;19.90;48.40;;;;;;5055328;28;20035;-63
2023/03/21 12:09:16;;;;;;;4.55;2.85;;;20.00;49.10;;;;;;5056819;28;20512;-63
2023/03/21 12:12:19;;;;;;;3.92;3.00;;;20.10;48.80;;;;;;5051018;28;20035;-63
2023/03/21 12:15:15;;;;;;;3.22;2.80;;;20.20;48.90;;;;;;5054475;28;20024;-64
2023/03/21 12:17:46;;;;;;;3.00;2.63;;;20.30;47.60;;;;;;5054701;28;20024;-64
2023/03/21 12:20:38;;;;;;;3.80;2.90;;;20.40;48.60;;;;;;5064957;28;20028;-64
2023/03/21 12:23:22;;;;;;;3.88;2.58;;;20.40;48.00;;;;;;5054767;28;20021;-65
2023/03/21 12:25:53;;;;;;;4.17;2.53;;;20.50;47.10;;;;;;5057887;28;20037;-64
2023/03/21 12:28:39;;;;;;;4.32;2.53;;;20.50;48.00;;;;;;5063730;28;20729;-64
2023/03/21 12:31:23;;;;;;;3.72;2.72;;;20.60;47.50;;;;;;5056619;28;20048;-65
2023/03/21 12:33:52;;;;;;;3.65;2.58;;;20.60;47.10;;;;;;5047405;28;20151;-64
2023/03/21 12:36:36;;;;;;;8.30;2.70;;;20.70;47.60;;;;;;5060126;28;20020;-65
2023/03/21 12:39:28;;;;;;;6.07;2.90;;;20.70;47.60;;;;;;5058434;28;20021;-65
2023/03/21 12:42:17;;;;;;;4.70;2.58;;;20.80;47.20;;;;;;5051460;28;20032;-64
2023/03/21 12:44:48;;;;;;;5.93;2.58;;;20.80;47.50;;;;;;5058566;28;20387;-63
2023/03/21 12:47:20;;;;;;;2.80;2.40;;;20.80;47.00;;;;;;5056515;28;20532;-65
2023/03/21 12:49:49;;;;;;;4.00;2.40;;;20.80;46.80;;;;;;5047424;28;20040;-65
2023/03/21 12:52:24;;;;;;;4.63;2.65;;;20.90;46.90;;;;;;5056763;28;20456;-63
2023/03/21 12:55:06;;;;;;;5.53;2.50;;;20.90;46.70;;;;;;5058986;28;20024;-66
2023/03/21 12:57:37;;;;;;;2.50;2.20;;;20.90;46.70;;;;;;5057646;28;20021;-63
2023/03/21 13:00:25;;;;;;;2.78;2.40;;;21.00;46.40;;;;;;5048735;28;20061;-63
2023/03/21 13:03:36;;;;;;;3.00;2.30;;;21.00;45.00;;;;;;5064492;28;20059;-64
2023/03/21 13:06:04;;;;;;;4.15;2.20;;;21.00;43.20;;;;;;5056176;28;20029;-63